Times Square, Washington
Current Conditions -  °F | °C
As of 12:53 PM on Thursday 18 Dec 2014 (Local Time) from KBFI Reporting Station
Overcast Overcast  
Wind Chill: 50°   Ceiling: 5500
Heat Index: 50°   Visibility: 10mi
Dew Point: 43°   Wind: 3mph
Humidity: 77%   Direction: 140°SE
Pressure: 29.85"   Gusts: NA
Location:  47.6115°N, 122.334°W
Report Text: KBFI 182053Z 14003KT 10SM SCT044 BKN055 OVC070 10/06 A2985 RMK AO2 RAE18B40E53 SLP106 P0000 60002 T01000061 58027
Loading
Personal Weather Stations






























Interactive Weather Map New forecast layout! Learn more

10-Day Weather Forecast

Advertisements
Track Severe Weather on mobile